createdAt,value
2018-11-26T00:01:50.386Z,3.80
2018-11-26T00:04:25.003Z,3.80
2018-11-26T00:06:54.439Z,3.80
2018-11-26T00:09:23.509Z,3.80
2018-11-26T00:11:52.842Z,3.80
2018-11-26T00:14:21.957Z,3.90
2018-11-26T00:16:51.437Z,3.90
2018-11-26T00:19:20.491Z,4.00
2018-11-26T00:21:49.851Z,4.00
2018-11-26T00:24:18.937Z,4.00
2018-11-26T00:26:48.025Z,3.90
2018-11-26T00:29:17.107Z,3.90
2018-11-26T00:31:46.177Z,3.90
2018-11-26T00:34:15.264Z,3.80
2018-11-26T00:36:44.484Z,3.70
2018-11-26T00:39:19.273Z,3.80
2018-11-26T00:41:48.438Z,3.90
2018-11-26T00:44:17.632Z,4.00
2018-11-26T00:46:47.084Z,3.90
2018-11-26T00:49:16.222Z,3.80
2018-11-26T00:51:45.536Z,3.80
2018-11-26T00:54:14.616Z,3.70
2018-11-26T00:56:43.942Z,3.60
2018-11-26T00:59:13.040Z,3.60
2018-11-26T01:01:42.342Z,3.50
2018-11-26T01:04:11.458Z,3.50
2018-11-26T01:06:46.045Z,3.50
2018-11-26T01:09:20.549Z,3.60
2018-11-26T01:11:49.910Z,3.60
2018-11-26T01:14:19.121Z,3.70
2018-11-26T01:16:48.234Z,3.70
2018-11-26T01:19:17.342Z,3.60
2018-11-26T01:21:52.116Z,3.70
2018-11-26T01:24:21.197Z,3.80
2018-11-26T01:26:50.492Z,3.70
2018-11-26T01:29:19.555Z,3.60
2018-11-26T01:31:48.903Z,3.60
2018-11-26T01:34:23.226Z,3.60
2018-11-26T01:36:52.815Z,3.50
2018-11-26T01:39:22.011Z,3.40
2018-11-26T01:41:51.421Z,3.40
2018-11-26T01:44:31.758Z,3.30
2018-11-26T01:47:01.065Z,3.30
2018-11-26T01:49:30.187Z,3.40
2018-11-26T01:51:59.347Z,3.50
2018-11-26T01:54:28.373Z,3.40
2018-11-26T01:56:57.537Z,3.50
2018-11-26T01:59:26.741Z,3.40
2018-11-26T02:02:01.389Z,3.30
2018-11-26T02:04:30.550Z,3.30
2018-11-26T02:06:59.883Z,3.20
2018-11-26T02:09:29.069Z,3.30
2018-11-26T02:11:58.500Z,3.30
2018-11-26T02:14:27.584Z,3.20
2018-11-26T02:16:56.682Z,3.20
2018-11-26T02:19:25.772Z,3.10
2018-11-26T02:21:55.077Z,3.10
2018-11-26T02:24:29.989Z,3.10
2018-11-26T02:26:59.361Z,3.10
2018-11-26T02:29:28.482Z,3.20
2018-11-26T02:31:57.818Z,3.20
2018-11-26T02:34:26.881Z,3.20
2018-11-26T02:36:56.230Z,3.30
2018-11-26T02:39:30.847Z,3.30
2018-11-26T02:42:00.189Z,3.20
2018-11-26T02:44:29.288Z,3.10
2018-11-26T02:46:58.636Z,3.20
2018-11-26T02:49:27.706Z,3.10
2018-11-26T02:51:56.814Z,3.20
2018-11-26T02:54:25.862Z,3.20
2018-11-26T02:56:54.984Z,3.20
2018-11-26T02:59:24.064Z,3.30
2018-11-26T03:01:53.399Z,3.40
2018-11-26T03:04:22.584Z,3.40
2018-11-26T03:06:52.108Z,3.40
2018-11-26T03:09:21.190Z,3.30
2018-11-26T03:11:50.505Z,3.30
2018-11-26T03:14:25.178Z,3.30
2018-11-26T03:16:54.470Z,3.40
2018-11-26T03:19:23.570Z,3.40
2018-11-26T03:21:52.922Z,3.30
2018-11-26T03:24:22.010Z,3.40
2018-11-26T03:26:51.415Z,3.40
2018-11-26T03:29:20.488Z,3.40
2018-11-26T03:31:49.604Z,3.40
2018-11-26T03:34:18.682Z,3.50
2018-11-26T03:36:47.812Z,3.40
2018-11-26T03:39:17.019Z,3.30
2018-11-26T03:41:46.595Z,3.30
2018-11-26T03:44:15.677Z,3.30
2018-11-26T03:46:50.361Z,3.20
2018-11-26T03:49:19.439Z,3.10
2018-11-26T03:51:48.745Z,3.20
2018-11-26T03:54:23.314Z,3.20
2018-11-26T03:56:52.655Z,3.10
2018-11-26T03:59:21.818Z,3.00
2018-11-26T04:01:50.922Z,2.90
2018-11-26T04:04:20.049Z,2.80
2018-11-26T04:06:49.349Z,3.00
2018-11-26T04:09:18.429Z,2.90
2018-11-26T04:11:47.755Z,2.80
2018-11-26T04:14:16.925Z,2.80
2018-11-26T04:16:46.227Z,2.80
2018-11-26T04:19:15.301Z,2.80
2018-11-26T04:21:44.645Z,2.70
2018-11-26T04:24:19.347Z,2.80
2018-11-26T04:26:48.449Z,2.80
2018-11-26T04:29:17.525Z,2.80
2018-11-26T04:31:46.879Z,3.00
2018-11-26T04:34:16.055Z,3.10
2018-11-26T04:36:45.569Z,3.00
2018-11-26T04:39:14.670Z,2.90
2018-11-26T04:41:43.852Z,2.90
2018-11-26T04:44:12.917Z,2.80
2018-11-26T04:46:42.331Z,2.90
2018-11-26T04:49:12.079Z,2.90
2018-11-26T04:51:41.345Z,3.00
2018-11-26T04:54:10.449Z,3.00
2018-11-26T04:56:39.922Z,3.00
2018-11-26T04:59:09.006Z,2.80
2018-11-26T05:01:38.236Z,2.70
2018-11-26T05:04:07.372Z,2.60
2018-11-26T05:06:36.748Z,2.60
2018-11-26T05:09:08.300Z,2.60
2018-11-26T05:11:38.130Z,2.40
2018-11-26T05:14:07.402Z,2.30
2018-11-26T05:16:36.646Z,2.20
2018-11-26T05:19:05.877Z,2.30
2018-11-26T05:21:35.196Z,2.20
2018-11-26T05:24:04.696Z,2.10
2018-11-26T05:26:33.904Z,2.10
2018-11-26T05:29:03.128Z,2.10
2018-11-26T05:31:32.236Z,2.00
2018-11-26T05:34:01.331Z,2.00
2018-11-26T05:36:30.465Z,2.00
2018-11-26T05:38:59.682Z,2.10
2018-11-26T05:41:29.107Z,2.20
2018-11-26T05:43:58.181Z,2.10
2018-11-26T05:46:32.808Z,2.20
2018-11-26T05:49:01.897Z,2.20
2018-11-26T05:51:31.230Z,2.40
2018-11-26T05:54:00.331Z,2.40
2018-11-26T05:56:29.478Z,2.30
2018-11-26T05:58:58.559Z,2.20
2018-11-26T06:01:27.911Z,2.20
2018-11-26T06:03:56.989Z,2.30
2018-11-26T06:06:26.206Z,2.20
2018-11-26T06:08:55.281Z,2.20
2018-11-26T06:11:24.617Z,2.10
2018-11-26T06:13:53.717Z,2.10
2018-11-26T06:16:22.990Z,2.10
2018-11-26T06:18:52.115Z,2.00
2018-11-26T06:21:21.235Z,2.10
2018-11-26T06:23:50.353Z,2.20
2018-11-26T06:26:19.691Z,2.20
2018-11-26T06:28:54.518Z,2.40
2018-11-26T06:31:29.555Z,2.30
2018-11-26T06:33:58.735Z,2.20
2018-11-26T06:36:28.082Z,2.00
2018-11-26T06:38:57.293Z,2.00
2018-11-26T06:41:26.671Z,2.00
2018-11-26T06:43:55.745Z,2.00
2018-11-26T06:46:25.145Z,2.10
2018-11-26T06:48:54.364Z,2.20
2018-11-26T06:51:23.746Z,2.20
2018-11-26T06:53:52.842Z,2.20
2018-11-26T06:56:22.168Z,2.10
2018-11-26T06:58:51.448Z,2.10
2018-11-26T07:01:20.565Z,2.10
2018-11-26T07:03:54.947Z,2.00
2018-11-26T07:06:24.298Z,2.10
2018-11-26T07:08:53.646Z,2.10
2018-11-26T07:11:23.178Z,2.20
2018-11-26T07:13:52.454Z,2.20
2018-11-26T07:16:21.651Z,2.10
2018-11-26T07:18:50.826Z,2.10
2018-11-26T07:21:20.291Z,2.30
2018-11-26T07:23:49.370Z,2.20
2018-11-26T07:26:19.137Z,2.20
2018-11-26T07:28:48.381Z,2.20
2018-11-26T07:31:17.778Z,2.30
2018-11-26T07:33:46.897Z,2.30
2018-11-26T07:36:16.081Z,2.40
2018-11-26T07:38:45.922Z,2.20
2018-11-26T07:41:15.063Z,2.20
2018-11-26T07:43:44.144Z,2.20
2018-11-26T07:46:13.697Z,2.20
2018-11-26T07:48:43.477Z,2.30
2018-11-26T07:51:12.816Z,2.20
2018-11-26T07:53:41.947Z,2.30
2018-11-26T07:56:11.065Z,2.40
2018-11-26T07:58:40.305Z,2.40
2018-11-26T08:01:09.622Z,2.40
2018-11-26T08:03:38.742Z,2.30
2018-11-26T08:06:13.753Z,2.30
2018-11-26T08:08:42.935Z,2.30
2018-11-26T08:11:12.045Z,2.40
2018-11-26T08:13:46.683Z,2.50
2018-11-26T08:16:16.769Z,2.50
2018-11-26T08:18:45.942Z,2.40
2018-11-26T08:21:15.084Z,2.30
2018-11-26T08:23:44.861Z,2.20
2018-11-26T08:26:14.046Z,2.10
2018-11-26T08:28:43.251Z,2.10
2018-11-26T08:31:12.563Z,2.10
2018-11-26T08:33:41.647Z,2.20
2018-11-26T08:36:14.253Z,2.30
2018-11-26T08:38:48.427Z,2.40
2018-11-26T08:41:19.297Z,2.40
2018-11-26T08:43:53.802Z,2.40
2018-11-26T08:46:28.310Z,2.50
2018-11-26T08:49:02.532Z,2.40
2018-11-26T08:51:31.878Z,2.50
2018-11-26T08:54:00.992Z,2.40
2018-11-26T08:56:30.370Z,2.40
2018-11-26T08:58:59.598Z,2.30
2018-11-26T09:01:39.600Z,2.30
2018-11-26T09:04:11.082Z,2.30
2018-11-26T09:06:41.868Z,2.30
2018-11-26T09:09:10.936Z,2.20
2018-11-26T09:11:40.493Z,2.10
2018-11-26T09:14:09.705Z,2.10
2018-11-26T09:16:38.886Z,2.10
2018-11-26T09:19:08.032Z,2.20
2018-11-26T09:21:37.404Z,2.30
2018-11-26T09:24:06.666Z,2.40
2018-11-26T09:26:35.774Z,2.40
2018-11-26T09:29:04.971Z,2.30
2018-11-26T09:31:34.134Z,2.30
2018-11-26T09:34:03.262Z,2.20
2018-11-26T09:36:32.688Z,2.30
2018-11-26T09:39:01.896Z,2.30
2018-11-26T09:41:31.177Z,2.20
2018-11-26T09:44:00.256Z,2.50
2018-11-26T09:46:29.575Z,2.60
2018-11-26T09:48:58.713Z,2.60
2018-11-26T09:51:41.647Z,2.70
2018-11-26T09:54:03.081Z,2.70
2018-11-26T09:56:32.395Z,2.70
2018-11-26T09:59:01.574Z,2.80
2018-11-26T10:01:30.689Z,2.80
2018-11-26T10:03:59.801Z,2.80
2018-11-26T10:06:29.093Z,2.80
2018-11-26T10:08:58.187Z,2.80
2018-11-26T10:11:27.605Z,2.80
2018-11-26T10:13:56.763Z,2.70
2018-11-26T10:16:26.390Z,2.60
2018-11-26T10:18:55.676Z,2.60
2018-11-26T10:21:24.833Z,2.60
2018-11-26T10:23:54.071Z,2.60
2018-11-26T10:26:23.384Z,2.70
2018-11-26T10:28:52.931Z,2.90
2018-11-26T10:31:22.059Z,2.90
2018-11-26T10:33:51.189Z,2.90
2018-11-26T10:36:20.519Z,2.80
2018-11-26T10:38:49.606Z,2.80
2018-11-26T10:41:18.750Z,2.70
2018-11-26T10:43:47.858Z,2.80
2018-11-26T10:46:17.381Z,2.80
2018-11-26T10:48:46.502Z,2.70
2018-11-26T10:51:15.887Z,2.80
2018-11-26T10:53:45.032Z,2.80
2018-11-26T10:56:19.710Z,2.80
2018-11-26T10:58:48.928Z,2.80
2018-11-26T11:01:23.636Z,2.80
2018-11-26T11:03:58.142Z,2.90
2018-11-26T11:06:27.323Z,2.90
2018-11-26T11:08:56.425Z,2.90
2018-11-26T11:11:25.750Z,2.80
2018-11-26T11:13:54.840Z,2.80
2018-11-26T11:16:24.159Z,2.80
2018-11-26T11:18:53.270Z,2.90
2018-11-26T11:21:22.561Z,3.00
2018-11-26T11:23:57.474Z,3.00
2018-11-26T11:26:26.605Z,3.00
2018-11-26T11:28:55.839Z,3.10
2018-11-26T11:31:25.094Z,3.10
2018-11-26T11:33:54.331Z,3.10
2018-11-26T11:36:23.825Z,3.20
2018-11-26T11:38:53.119Z,3.10
2018-11-26T11:41:22.643Z,3.00
2018-11-26T11:43:57.171Z,2.90
2018-11-26T11:46:26.437Z,3.10
2018-11-26T11:48:56.580Z,3.20
2018-11-26T11:51:25.742Z,3.10
2018-11-26T11:53:54.889Z,3.10
2018-11-26T11:56:24.434Z,3.10
2018-11-26T11:58:53.662Z,3.10
2018-11-26T12:01:23.000Z,3.10
2018-11-26T12:03:52.140Z,3.00
2018-11-26T12:06:21.765Z,3.00
2018-11-26T12:08:50.902Z,3.10
2018-11-26T12:11:20.358Z,3.10
2018-11-26T12:13:49.517Z,3.10
2018-11-26T12:16:18.856Z,3.10
2018-11-26T12:18:48.001Z,3.20
2018-11-26T12:21:17.169Z,3.10
2018-11-26T12:23:46.357Z,3.20
2018-11-26T12:26:15.851Z,3.20
2018-11-26T12:28:44.993Z,3.40
2018-11-26T12:31:14.292Z,3.30
2018-11-26T12:33:43.607Z,3.20
2018-11-26T12:36:13.015Z,3.20
2018-11-26T12:38:42.225Z,3.30
2018-11-26T12:41:11.749Z,3.50
2018-11-26T12:43:40.967Z,3.50
2018-11-26T12:46:10.518Z,3.50
2018-11-26T12:48:39.651Z,3.50
2018-11-26T12:51:09.155Z,3.40
2018-11-26T12:53:38.487Z,3.40
2018-11-26T12:56:07.965Z,3.30
2018-11-26T12:58:37.309Z,3.40
2018-11-26T13:01:07.203Z,3.30
2018-11-26T13:03:36.557Z,3.30
2018-11-26T13:06:06.932Z,3.40
2018-11-26T13:08:36.261Z,3.50
2018-11-26T13:11:06.077Z,3.40
2018-11-26T13:13:35.343Z,3.50
2018-11-26T13:16:05.081Z,3.50
2018-11-26T13:18:34.203Z,3.40
2018-11-26T13:21:09.033Z,3.30
2018-11-26T13:23:38.211Z,3.20
2018-11-26T13:26:13.533Z,3.10
2018-11-26T13:28:42.774Z,3.00
2018-11-26T13:31:12.233Z,2.80
2018-11-26T13:33:47.073Z,2.80
2018-11-26T13:36:16.651Z,2.70
2018-11-26T13:38:45.865Z,2.90
2018-11-26T13:41:15.095Z,2.90
2018-11-26T13:43:44.195Z,2.90
2018-11-26T13:46:13.393Z,2.90
2018-11-26T13:48:42.523Z,2.80
2018-11-26T13:51:17.441Z,2.60
2018-11-26T13:53:52.059Z,2.60
2018-11-26T13:56:21.450Z,2.50
2018-11-26T13:58:50.645Z,2.60
2018-11-26T14:01:25.262Z,2.80
2018-11-26T14:03:54.395Z,2.80
2018-11-26T14:06:23.865Z,2.60
2018-11-26T14:08:53.121Z,2.60
2018-11-26T14:11:22.391Z,2.60
2018-11-26T14:13:51.623Z,2.60
2018-11-26T14:16:21.002Z,2.70
2018-11-26T14:18:55.707Z,2.70
2018-11-26T14:21:25.015Z,2.60
2018-11-26T14:23:54.357Z,2.80
2018-11-26T14:26:23.752Z,2.80
2018-11-26T14:28:52.960Z,2.70
2018-11-26T14:31:22.298Z,2.60
2018-11-26T14:33:51.497Z,2.50
2018-11-26T14:36:20.934Z,2.50
2018-11-26T14:38:50.122Z,2.40
2018-11-26T14:41:19.268Z,2.40
2018-11-26T14:43:48.400Z,2.50
2018-11-26T14:46:17.529Z,2.40
2018-11-26T14:48:46.598Z,2.30
2018-11-26T14:51:16.014Z,2.30
2018-11-26T14:53:45.114Z,2.30
2018-11-26T14:56:14.244Z,2.20
2018-11-26T14:58:43.358Z,2.30
2018-11-26T15:01:18.928Z,2.30
2018-11-26T15:03:53.550Z,2.20
2018-11-26T15:06:28.028Z,2.30
2018-11-26T15:08:57.146Z,2.30
2018-11-26T15:11:26.497Z,2.40
2018-11-26T15:13:55.626Z,2.40
2018-11-26T15:16:25.164Z,2.30
2018-11-26T15:18:54.292Z,2.30
2018-11-26T15:21:28.982Z,2.40
2018-11-26T15:23:58.039Z,2.40
2018-11-26T15:26:27.734Z,2.40
2018-11-26T15:28:56.631Z,2.40
2018-11-26T15:31:26.116Z,2.30
2018-11-26T15:33:55.221Z,2.20
2018-11-26T15:36:24.333Z,2.20
2018-11-26T15:38:53.423Z,2.20
2018-11-26T15:41:22.803Z,2.10
2018-11-26T15:43:51.969Z,2.00
2018-11-26T15:46:21.295Z,2.10
2018-11-26T15:48:50.369Z,2.00
2018-11-26T15:51:19.569Z,1.90
2018-11-26T15:56:17.901Z,2.00
2018-11-26T15:58:47.071Z,2.10
2018-11-26T16:01:16.280Z,2.10
2018-11-26T16:03:45.401Z,2.10
2018-11-26T16:06:14.847Z,2.10
2018-11-26T16:08:43.947Z,2.00
2018-11-26T16:11:13.281Z,2.00
2018-11-26T16:13:42.425Z,2.00
2018-11-26T16:16:11.533Z,2.00
2018-11-26T16:18:40.643Z,2.00
2018-11-26T16:21:10.151Z,1.90
2018-11-26T16:23:39.351Z,1.80
2018-11-26T16:26:08.720Z,1.70
2018-11-26T16:28:37.956Z,1.70
2018-11-26T16:31:07.286Z,1.70
2018-11-26T16:33:41.805Z,1.70
2018-11-26T16:36:11.206Z,1.70
2018-11-26T16:38:40.914Z,1.60
2018-11-26T16:41:10.187Z,1.50
2018-11-26T16:43:39.385Z,1.50
2018-11-26T16:46:08.718Z,1.50
2018-11-26T16:48:37.805Z,1.60
2018-11-26T16:51:07.306Z,1.50
2018-11-26T16:53:36.738Z,1.50
2018-11-26T16:56:05.841Z,1.40
2018-11-26T16:58:34.916Z,1.40
2018-11-26T17:01:04.614Z,1.40
2018-11-26T17:03:33.718Z,1.50
2018-11-26T17:06:03.120Z,1.50
2018-11-26T17:08:32.286Z,1.50
2018-11-26T17:11:01.716Z,1.50
2018-11-26T17:13:30.805Z,1.50
2018-11-26T17:16:00.106Z,1.50
2018-11-26T17:18:29.222Z,1.50
2018-11-26T17:20:58.398Z,1.40
2018-11-26T17:23:27.492Z,1.50
2018-11-26T17:25:56.949Z,1.60
2018-11-26T17:28:26.466Z,1.70
2018-11-26T17:30:57.395Z,1.60
2018-11-26T17:33:26.591Z,1.60
2018-11-26T17:35:55.731Z,1.70
2018-11-26T17:38:24.833Z,1.80
2018-11-26T17:40:54.365Z,1.70
2018-11-26T17:43:23.488Z,1.60
2018-11-26T17:45:52.757Z,1.60
2018-11-26T17:48:23.151Z,1.70
2018-11-26T17:50:51.342Z,1.80
2018-11-26T17:53:21.433Z,1.80
2018-11-26T17:55:53.776Z,1.70
2018-11-26T17:58:25.160Z,1.70
2018-11-26T18:01:04.770Z,1.60
2018-11-26T18:03:34.309Z,1.50
2018-11-26T18:06:03.545Z,1.50
2018-11-26T18:08:32.698Z,1.60
2018-11-26T18:11:02.156Z,1.60
2018-11-26T18:13:31.283Z,1.60
2018-11-26T18:16:00.553Z,1.50
2018-11-26T18:18:29.669Z,1.50
2018-11-26T18:20:59.611Z,1.50
2018-11-26T18:23:28.898Z,1.50
2018-11-26T18:25:58.099Z,1.50
2018-11-26T18:28:28.165Z,1.40
2018-11-26T18:30:56.708Z,1.40
2018-11-26T18:33:25.789Z,1.50
2018-11-26T18:35:54.970Z,1.60
2018-11-26T18:38:29.632Z,1.50
2018-11-26T18:40:59.058Z,1.50
2018-11-26T18:43:28.144Z,1.50
2018-11-26T18:45:57.551Z,1.50
2018-11-26T18:48:31.993Z,1.40
2018-11-26T18:51:01.192Z,1.40
2018-11-26T18:53:30.276Z,1.40
2018-11-26T18:55:59.443Z,1.50
2018-11-26T18:58:28.744Z,1.40
2018-11-26T19:01:00.021Z,1.40
2018-11-26T19:03:35.620Z,1.30
2018-11-26T19:06:05.275Z,1.30
2018-11-26T19:08:34.367Z,1.30
2018-11-26T19:11:13.400Z,1.30
2018-11-26T19:13:51.612Z,1.30
2018-11-26T19:16:23.116Z,1.30
2018-11-26T19:18:52.500Z,1.30
2018-11-26T19:21:21.891Z,1.40
2018-11-26T19:23:50.989Z,1.60
2018-11-26T19:26:20.324Z,1.50
2018-11-26T19:28:49.394Z,1.40
2018-11-26T19:31:24.599Z,1.40
2018-11-26T19:33:54.116Z,1.40
2018-11-26T19:36:23.738Z,1.30
2018-11-26T19:38:52.981Z,1.30
2018-11-26T19:41:28.089Z,1.30
2018-11-26T19:43:57.209Z,1.30
2018-11-26T19:46:26.396Z,1.40
2018-11-26T19:48:55.447Z,1.30
2018-11-26T19:51:24.597Z,1.40
2018-11-26T19:53:53.653Z,1.40
2018-11-26T19:56:23.027Z,1.40
2018-11-26T19:58:52.199Z,1.40
2018-11-26T20:01:21.575Z,1.50
2018-11-26T20:03:54.391Z,1.50
2018-11-26T20:06:25.307Z,1.40
2018-11-26T20:08:56.975Z,1.30
2018-11-26T20:11:26.076Z,1.40
2018-11-26T20:13:55.184Z,1.30
2018-11-26T20:16:28.547Z,1.30
2018-11-26T20:18:57.916Z,1.30
2018-11-26T20:21:28.071Z,1.30
2018-11-26T20:23:57.366Z,1.40
2018-11-26T20:26:26.678Z,1.40
2018-11-26T20:28:57.099Z,1.30
2018-11-26T20:31:25.265Z,1.40
2018-11-26T20:33:54.602Z,1.40
2018-11-26T20:36:23.939Z,1.50
2018-11-26T20:38:53.091Z,1.50
2018-11-26T20:41:22.219Z,1.50
2018-11-26T20:43:51.382Z,1.50
2018-11-26T20:46:21.380Z,1.50
2018-11-26T20:48:50.480Z,1.20
2018-11-26T20:51:20.138Z,1.10
2018-11-26T20:53:49.388Z,0.90
2018-11-26T20:56:19.248Z,0.80
2018-11-26T20:58:48.715Z,0.70
2018-11-26T21:01:18.018Z,0.50
2018-11-26T21:03:47.202Z,0.40
2018-11-26T21:06:21.990Z,0.40
2018-11-26T21:08:51.244Z,0.30
2018-11-26T21:11:20.707Z,0.20
2018-11-26T21:13:55.376Z,0.20
2018-11-26T21:16:24.727Z,0.10
2018-11-26T21:18:53.979Z,0.10
2018-11-26T21:21:23.413Z,0.10
2018-11-26T21:23:52.671Z,0.00
2018-11-26T21:26:21.903Z,0.00
2018-11-26T21:28:50.981Z,-0.10
2018-11-26T21:31:20.402Z,-0.20
2018-11-26T21:33:49.573Z,-0.20
2018-11-26T21:36:18.690Z,-0.20
2018-11-26T21:38:47.869Z,-0.30
2018-11-26T21:41:17.167Z,-0.30
2018-11-26T21:43:46.275Z,-0.40
2018-11-26T21:46:15.699Z,-0.40
2018-11-26T21:48:44.829Z,-0.50
2018-11-26T21:51:14.224Z,-0.50
2018-11-26T21:53:43.321Z,-0.50
2018-11-26T21:56:12.493Z,-0.50
2018-11-26T21:58:41.694Z,-0.50
2018-11-26T22:01:11.233Z,-0.60
2018-11-26T22:03:40.968Z,-0.60
2018-11-26T22:06:10.166Z,-0.40
2018-11-26T22:08:39.483Z,-0.50
2018-11-26T22:11:08.680Z,-0.60
2018-11-26T22:13:37.851Z,-0.50
2018-11-26T22:16:07.208Z,-0.60
2018-11-26T22:18:36.406Z,-0.50
2018-11-26T22:21:06.006Z,-0.50
2018-11-26T22:23:35.248Z,-0.50
2018-11-26T22:26:04.489Z,-0.40
2018-11-26T22:28:39.417Z,-0.60
2018-11-26T22:31:08.644Z,-0.70
2018-11-26T22:33:37.721Z,-0.70
2018-11-26T22:36:06.855Z,-0.80
2018-11-26T22:38:35.929Z,-0.80
2018-11-26T22:41:06.186Z,-0.80
2018-11-26T22:43:35.348Z,-0.80
2018-11-26T22:46:04.752Z,-0.90
2018-11-26T22:48:33.850Z,-0.90
2018-11-26T22:51:03.343Z,-0.90
2018-11-26T22:53:38.111Z,-0.90
2018-11-26T22:56:07.221Z,-0.90
2018-11-26T22:58:36.319Z,-0.90
2018-11-26T23:01:06.488Z,-0.80
2018-11-26T23:03:35.737Z,-0.90
2018-11-26T23:06:05.192Z,-0.90
2018-11-26T23:08:34.327Z,-0.90
2018-11-26T23:11:03.689Z,-0.90
2018-11-26T23:13:32.831Z,-0.80
2018-11-26T23:16:02.384Z,-0.90
2018-11-26T23:18:31.477Z,-1.00
2018-11-26T23:21:00.754Z,-1.00
2018-11-26T23:23:29.867Z,-1.00
2018-11-26T23:25:59.359Z,-1.00
2018-11-26T23:28:28.472Z,-1.10
2018-11-26T23:30:57.568Z,-1.20
2018-11-26T23:33:26.637Z,-1.20
2018-11-26T23:35:56.283Z,-1.20
2018-11-26T23:38:25.538Z,-1.20
2018-11-26T23:40:54.904Z,-1.20
2018-11-26T23:43:24.230Z,-1.30
2018-11-26T23:45:59.220Z,-1.30
2018-11-26T23:48:28.328Z,-1.20
2018-11-26T23:50:57.722Z,-1.20
2018-11-26T23:53:26.893Z,-1.30
2018-11-26T23:55:56.215Z,-1.30
2018-11-26T23:58:25.364Z,-1.40
